createdAt,value
2023-12-19T00:02:52.252Z,90.10
2023-12-19T00:05:57.759Z,90.20
2023-12-19T00:09:05.172Z,90.20
2023-12-19T00:12:11.342Z,90.20
2023-12-19T00:15:19.544Z,90.20
2023-12-19T00:18:28.133Z,90.20
2023-12-19T00:21:35.660Z,90.20
2023-12-19T00:24:42.107Z,90.20
2023-12-19T00:27:49.597Z,90.20
2023-12-19T00:30:55.092Z,90.20
2023-12-19T00:34:05.276Z,90.30
2023-12-19T00:37:10.790Z,90.30
2023-12-19T00:40:18.716Z,90.30
2023-12-19T00:43:24.136Z,90.20
2023-12-19T00:46:31.621Z,90.30
2023-12-19T00:49:39.735Z,90.30
2023-12-19T00:52:47.293Z,90.30
2023-12-19T00:55:52.766Z,90.50
2023-12-19T00:59:00.598Z,90.50
2023-12-19T01:02:06.079Z,90.30
2023-12-19T01:05:16.224Z,90.40
2023-12-19T01:08:22.828Z,90.60
2023-12-19T01:11:30.549Z,90.50
2023-12-19T01:14:35.987Z,90.40
2023-12-19T01:17:44.027Z,90.70
2023-12-19T01:20:52.479Z,90.70
2023-12-19T01:23:59.924Z,90.90
2023-12-19T01:27:05.519Z,91.10
2023-12-19T01:30:13.887Z,91.70
2023-12-19T01:33:19.558Z,92.80
2023-12-19T01:36:29.816Z,93.50
2023-12-19T01:39:35.307Z,93.50
2023-12-19T01:42:43.456Z,93.10
2023-12-19T01:45:50.061Z,90.60
2023-12-19T01:48:58.771Z,90.50
2023-12-19T01:52:07.946Z,90.50
2023-12-19T01:55:17.443Z,90.50
2023-12-19T01:58:24.116Z,90.50
2023-12-19T02:08:50.401Z,92.50
2023-12-19T02:11:59.331Z,91.70
2023-12-19T02:15:11.728Z,90.80
2023-12-19T02:18:18.675Z,90.40
2023-12-19T02:21:32.359Z,90.40
2023-12-19T02:24:45.326Z,90.50
2023-12-19T02:27:56.603Z,90.50
2023-12-19T02:31:02.225Z,90.50
2023-12-19T02:34:09.864Z,90.50
2023-12-19T02:37:15.404Z,90.50
2023-12-19T02:40:25.949Z,90.50
2023-12-19T02:43:31.565Z,90.50
2023-12-19T02:46:39.368Z,90.50
2023-12-19T02:49:47.310Z,90.50
2023-12-19T02:52:54.908Z,90.50
2023-12-19T02:56:03.049Z,90.50
2023-12-19T02:59:10.618Z,90.50
2023-12-19T03:02:16.254Z,90.50
2023-12-19T03:05:24.052Z,90.50
2023-12-19T03:08:29.546Z,90.50
2023-12-19T03:11:42.308Z,90.50
2023-12-19T03:14:47.812Z,90.50
2023-12-19T03:18:01.605Z,90.50
2023-12-19T03:21:09.778Z,90.50
2023-12-19T03:24:17.607Z,90.50
2023-12-19T03:27:27.387Z,90.50
2023-12-19T03:30:35.129Z,90.50
2023-12-19T03:33:46.351Z,90.60
2023-12-19T03:36:58.201Z,90.50
2023-12-19T03:40:07.518Z,90.60
2023-12-19T03:43:27.856Z,90.50
2023-12-19T03:46:33.572Z,90.60
2023-12-19T03:49:47.209Z,90.50
2023-12-19T03:52:57.529Z,90.50
2023-12-19T03:56:08.356Z,90.50
2023-12-19T03:59:20.316Z,90.60
2023-12-19T04:02:28.046Z,90.50
2023-12-19T04:05:39.561Z,90.60
2023-12-19T04:08:47.394Z,90.60
2023-12-19T04:11:55.256Z,90.60
2023-12-19T04:15:09.752Z,90.60
2023-12-19T04:18:17.227Z,90.60
2023-12-19T04:21:25.075Z,90.60
2023-12-19T04:24:30.689Z,90.60
2023-12-19T04:27:38.486Z,90.60
2023-12-19T04:30:46.705Z,90.60
2023-12-19T04:33:57.082Z,90.60
2023-12-19T04:37:04.728Z,90.60
2023-12-19T04:40:13.050Z,90.60
2023-12-19T04:43:18.593Z,90.60
2023-12-19T04:46:28.839Z,90.60
2023-12-19T04:49:34.502Z,90.60
2023-12-19T04:52:43.192Z,90.60
2023-12-19T04:55:48.916Z,90.60
2023-12-19T04:58:56.409Z,90.70
2023-12-19T05:02:04.463Z,90.70
2023-12-19T05:05:13.176Z,90.70
2023-12-19T05:08:18.946Z,90.70
2023-12-19T05:11:28.720Z,90.70
2023-12-19T05:14:34.384Z,90.70
2023-12-19T05:17:46.839Z,90.70
2023-12-19T05:20:53.923Z,90.70
2023-12-19T05:24:01.654Z,90.70
2023-12-19T05:27:07.967Z,90.70
2023-12-19T05:30:16.881Z,90.70
2023-12-19T05:33:25.258Z,90.70
2023-12-19T05:36:38.260Z,90.70
2023-12-19T05:39:47.187Z,90.70
2023-12-19T05:42:59.463Z,90.70
2023-12-19T05:46:05.167Z,90.70
2023-12-19T05:49:15.449Z,90.70
2023-12-19T05:52:21.040Z,90.70
2023-12-19T05:55:28.512Z,90.70
2023-12-19T05:58:34.687Z,90.80
2023-12-19T06:01:47.978Z,90.80
2023-12-19T06:04:56.413Z,90.80
2023-12-19T06:08:04.778Z,90.80
2023-12-19T06:11:10.633Z,90.80
2023-12-19T06:14:18.140Z,90.70
2023-12-19T06:17:23.740Z,90.80
2023-12-19T06:20:34.559Z,90.80
2023-12-19T06:23:41.797Z,90.80
2023-12-19T06:26:49.979Z,90.80
2023-12-19T06:29:57.331Z,90.80
2023-12-19T06:33:07.246Z,90.80
2023-12-19T06:36:31.070Z,90.80
2023-12-19T06:39:39.535Z,90.80
2023-12-19T06:42:46.303Z,90.80
2023-12-19T06:45:56.690Z,90.80
2023-12-19T06:49:02.744Z,90.80
2023-12-19T06:52:14.365Z,90.80
2023-12-19T06:55:20.211Z,91.00
2023-12-19T06:58:27.750Z,90.90
2023-12-19T07:01:33.496Z,90.80
2023-12-19T07:04:41.236Z,91.10
2023-12-19T07:07:52.901Z,90.90
2023-12-19T07:11:00.602Z,90.90
2023-12-19T07:14:06.158Z,90.90
2023-12-19T07:17:14.493Z,90.90
2023-12-19T07:20:21.122Z,90.90
2023-12-19T07:23:35.032Z,90.90
2023-12-19T07:26:40.696Z,90.90
2023-12-19T07:29:48.661Z,90.90
2023-12-19T07:32:54.638Z,90.90
2023-12-19T07:36:02.315Z,90.90
2023-12-19T07:39:11.435Z,91.00
2023-12-19T07:42:19.065Z,90.90
2023-12-19T07:45:24.866Z,90.90
2023-12-19T07:48:32.646Z,90.90
2023-12-19T07:51:38.753Z,91.00
2023-12-19T07:54:49.730Z,90.90
2023-12-19T07:57:55.470Z,91.00
2023-12-19T08:01:03.194Z,91.00
2023-12-19T08:04:09.239Z,90.90
2023-12-19T08:07:21.710Z,91.00
2023-12-19T08:10:30.277Z,91.00
2023-12-19T08:13:38.613Z,91.00
2023-12-19T08:16:45.954Z,91.10
2023-12-19T08:19:54.896Z,91.10
2023-12-19T08:23:00.650Z,91.10
2023-12-19T08:26:15.177Z,91.10
2023-12-19T08:29:23.385Z,91.10
2023-12-19T08:32:33.763Z,91.10
2023-12-19T08:35:49.437Z,91.10
2023-12-19T08:38:57.046Z,91.10
2023-12-19T08:42:05.862Z,91.10
2023-12-19T08:45:19.714Z,91.20
2023-12-19T08:48:25.783Z,91.20
2023-12-19T08:51:33.728Z,91.20
2023-12-19T08:54:40.415Z,91.20
2023-12-19T08:57:52.467Z,91.20
2023-12-19T09:00:58.657Z,91.20
2023-12-19T09:04:07.389Z,91.20
2023-12-19T09:07:13.027Z,91.20
2023-12-19T09:10:21.234Z,91.20
2023-12-19T09:13:29.670Z,91.20
2023-12-19T09:16:37.226Z,91.20
2023-12-19T09:19:46.358Z,91.50
2023-12-19T09:22:54.529Z,91.30
2023-12-19T09:26:00.055Z,91.30
2023-12-19T09:29:10.367Z,91.30
2023-12-19T09:32:17.650Z,91.30
2023-12-19T09:35:25.384Z,91.30
2023-12-19T09:38:30.950Z,91.30
2023-12-19T09:41:39.265Z,91.30
2023-12-19T09:44:47.688Z,91.40
2023-12-19T09:48:04.351Z,91.30
2023-12-19T09:51:18.672Z,91.50
2023-12-19T09:54:27.536Z,91.30
2023-12-19T09:57:37.215Z,91.30
2023-12-19T10:00:48.157Z,91.40
2023-12-19T10:03:57.045Z,91.30
2023-12-19T10:07:06.185Z,91.30
2023-12-19T10:10:15.154Z,91.30
2023-12-19T10:13:35.295Z,91.30
2023-12-19T10:16:47.605Z,91.40
2023-12-19T10:19:58.157Z,91.40
2023-12-19T10:23:08.583Z,91.50
2023-12-19T10:26:16.873Z,91.60
2023-12-19T10:29:38.282Z,91.40
2023-12-19T10:32:51.231Z,91.40
2023-12-19T10:35:57.587Z,91.40
2023-12-19T10:39:09.423Z,91.40
2023-12-19T10:42:18.683Z,91.40
2023-12-19T10:45:28.490Z,91.60
2023-12-19T10:48:38.661Z,91.40
2023-12-19T10:51:54.853Z,91.40
2023-12-19T10:55:17.323Z,91.60
2023-12-19T10:58:30.848Z,91.40
2023-12-19T11:01:42.509Z,91.40
2023-12-19T11:05:02.508Z,91.40
2023-12-19T11:08:16.177Z,91.40
2023-12-19T11:11:33.507Z,91.40
2023-12-19T11:14:43.087Z,91.40
2023-12-19T11:17:57.991Z,91.40
2023-12-19T11:21:12.612Z,91.40
2023-12-19T11:24:28.029Z,91.50
2023-12-19T11:27:42.212Z,91.50
2023-12-19T11:30:50.545Z,91.40
2023-12-19T11:33:59.516Z,91.50
2023-12-19T11:37:13.462Z,91.40
2023-12-19T11:40:53.112Z,91.40
2023-12-19T11:44:03.471Z,91.70
2023-12-19T11:47:21.154Z,91.40
2023-12-19T11:50:50.466Z,91.50
2023-12-19T11:53:59.956Z,91.50
2023-12-19T11:57:08.032Z,91.50
2023-12-19T12:00:16.860Z,91.50
2023-12-19T12:03:24.851Z,91.40
2023-12-19T12:06:31.412Z,91.50
2023-12-19T12:09:44.574Z,91.50
2023-12-19T12:12:50.185Z,91.50
2023-12-19T12:15:58.020Z,91.50
2023-12-19T12:19:13.893Z,91.40
2023-12-19T12:22:21.584Z,91.40
2023-12-19T12:25:30.222Z,91.40
2023-12-19T12:28:38.555Z,91.40
2023-12-19T12:31:44.822Z,91.40
2023-12-19T12:34:52.536Z,91.50
2023-12-19T12:38:02.975Z,91.40
2023-12-19T12:41:14.576Z,91.50
2023-12-19T12:44:21.076Z,91.50
2023-12-19T12:47:31.517Z,91.50
2023-12-19T12:50:37.937Z,91.50
2023-12-19T12:53:45.908Z,91.50
2023-12-19T12:56:54.855Z,91.50
2023-12-19T13:00:12.711Z,91.50
2023-12-19T13:03:29.126Z,91.50
2023-12-19T13:06:43.874Z,91.50
2023-12-19T13:09:57.717Z,91.50
2023-12-19T13:13:14.453Z,91.50
2023-12-19T13:16:25.897Z,91.50
2023-12-19T13:19:34.584Z,91.50
2023-12-19T13:22:41.802Z,91.50
2023-12-19T13:25:50.196Z,91.60
2023-12-19T13:28:58.426Z,91.50
2023-12-19T13:32:06.069Z,91.50
2023-12-19T13:35:12.969Z,91.50
2023-12-19T13:38:21.186Z,91.50
2023-12-19T13:41:27.170Z,91.50
2023-12-19T13:44:37.703Z,91.50
2023-12-19T13:47:44.136Z,91.50
2023-12-19T13:50:52.818Z,91.50
2023-12-19T13:54:01.168Z,91.50
2023-12-19T13:57:10.625Z,91.50
2023-12-19T14:00:26.041Z,91.70
2023-12-19T14:03:42.194Z,91.50
2023-12-19T14:06:48.515Z,91.50
2023-12-19T14:09:56.258Z,91.50
2023-12-19T14:13:04.907Z,91.50
2023-12-19T14:16:17.246Z,91.50
2023-12-19T14:19:23.277Z,91.50
2023-12-19T14:22:31.381Z,91.50
2023-12-19T14:25:38.949Z,91.50
2023-12-19T14:28:51.447Z,91.50
2023-12-19T14:31:59.606Z,91.60
2023-12-19T14:35:10.551Z,91.60
2023-12-19T14:38:16.574Z,91.60
2023-12-19T14:41:24.128Z,91.50
2023-12-19T14:44:30.724Z,91.50
2023-12-19T14:47:41.083Z,91.50
2023-12-19T14:50:46.948Z,91.50
2023-12-19T14:53:58.038Z,91.50
2023-12-19T14:57:03.830Z,91.50
2023-12-19T15:00:15.422Z,91.50
2023-12-19T15:03:24.394Z,91.60
2023-12-19T15:06:32.415Z,91.50
2023-12-19T15:09:42.816Z,91.60
2023-12-19T15:12:54.228Z,91.50
2023-12-19T15:16:00.079Z,91.60
2023-12-19T15:19:10.551Z,91.50
2023-12-19T15:22:16.368Z,91.50
2023-12-19T15:25:24.106Z,91.50
2023-12-19T15:28:29.767Z,91.40
2023-12-19T15:31:43.291Z,91.40
2023-12-19T15:34:51.735Z,91.50
2023-12-19T15:37:59.343Z,91.40
2023-12-19T15:41:04.894Z,91.40
2023-12-19T15:44:13.441Z,91.40
2023-12-19T15:47:22.209Z,91.50
2023-12-19T15:50:34.914Z,91.40
2023-12-19T15:53:41.035Z,91.40
2023-12-19T15:56:48.736Z,91.40
2023-12-19T15:59:54.468Z,91.40
2023-12-19T16:03:02.072Z,91.40
2023-12-19T16:06:10.814Z,91.50
2023-12-19T16:09:18.564Z,91.50
2023-12-19T16:12:24.120Z,91.40
2023-12-19T16:15:32.008Z,91.60
2023-12-19T16:18:38.751Z,91.50
2023-12-19T16:21:48.971Z,91.50
2023-12-19T16:24:56.827Z,91.50
2023-12-19T16:28:04.462Z,91.50
2023-12-19T16:31:17.157Z,91.50
2023-12-19T16:34:26.000Z,91.50
2023-12-19T16:37:34.523Z,91.50
2023-12-19T16:40:42.095Z,91.50
2023-12-19T16:43:47.784Z,91.40
2023-12-19T16:47:01.998Z,91.70
2023-12-19T16:50:09.045Z,91.50
2023-12-19T16:53:19.556Z,91.50
2023-12-19T16:56:25.110Z,91.50
2023-12-19T16:59:33.004Z,91.60
2023-12-19T17:02:42.315Z,91.50
2023-12-19T17:05:56.718Z,91.50
2023-12-19T17:09:12.382Z,91.50
2023-12-19T17:12:20.816Z,91.40
2023-12-19T17:15:29.055Z,91.40
2023-12-19T17:18:42.521Z,91.40
2023-12-19T17:21:48.717Z,91.40
2023-12-19T17:25:08.665Z,91.40
2023-12-19T17:28:16.236Z,91.70
2023-12-19T17:31:24.188Z,91.40
2023-12-19T17:34:30.054Z,91.40
2023-12-19T17:37:40.836Z,91.40
2023-12-19T17:40:49.175Z,91.40
2023-12-19T17:44:01.876Z,91.50
2023-12-19T17:47:08.038Z,91.40
2023-12-19T17:50:20.832Z,91.50
2023-12-19T17:53:42.505Z,91.50
2023-12-19T17:57:05.321Z,91.50
2023-12-19T18:00:29.538Z,91.50
2023-12-19T18:03:43.017Z,91.50
2023-12-19T18:06:56.365Z,91.40
2023-12-19T18:10:09.233Z,91.50
2023-12-19T18:13:21.000Z,91.50
2023-12-19T18:16:31.745Z,91.50
2023-12-19T18:19:39.686Z,91.50
2023-12-19T18:22:48.357Z,91.50
2023-12-19T18:25:54.010Z,91.50
2023-12-19T18:29:04.324Z,91.50
2023-12-19T18:32:10.432Z,91.60
2023-12-19T18:35:19.777Z,91.50
2023-12-19T18:38:25.361Z,91.50
2023-12-19T18:41:33.146Z,91.50
2023-12-19T18:44:43.705Z,91.50
2023-12-19T18:47:51.565Z,91.70
2023-12-19T18:50:57.060Z,91.50
2023-12-19T18:54:04.627Z,91.50
2023-12-19T18:57:11.120Z,91.50
2023-12-19T19:00:22.884Z,91.50
2023-12-19T19:03:29.882Z,91.50
2023-12-19T19:06:44.079Z,91.50
2023-12-19T19:10:01.566Z,91.60
2023-12-19T19:13:11.727Z,91.50
2023-12-19T19:16:23.598Z,91.50
2023-12-19T19:19:33.755Z,91.60
2023-12-19T19:22:40.865Z,91.60
2023-12-19T19:25:49.531Z,91.60
2023-12-19T19:28:58.178Z,91.60
2023-12-19T19:32:15.645Z,91.60
2023-12-19T19:35:24.682Z,91.60
2023-12-19T19:38:36.265Z,91.60
2023-12-19T19:41:45.379Z,91.60
2023-12-19T19:44:57.511Z,91.60
2023-12-19T19:48:08.159Z,91.60
2023-12-19T19:51:16.424Z,91.60
2023-12-19T19:54:23.708Z,91.60
2023-12-19T19:57:32.975Z,91.60
2023-12-19T20:00:39.189Z,91.60
2023-12-19T20:03:50.340Z,91.70
2023-12-19T20:06:55.872Z,91.60
2023-12-19T20:10:04.126Z,91.60
2023-12-19T20:13:10.514Z,91.60
2023-12-19T20:16:18.148Z,91.60
2023-12-19T20:19:26.796Z,91.60
2023-12-19T20:22:35.520Z,91.60
2023-12-19T20:25:41.230Z,91.60
2023-12-19T20:28:49.020Z,91.60
2023-12-19T20:31:54.557Z,91.60
2023-12-19T20:35:34.208Z,91.50
2023-12-19T20:38:54.353Z,91.40
2023-12-19T20:42:08.430Z,91.50
2023-12-19T20:45:26.642Z,91.50
2023-12-19T20:48:42.454Z,91.50
2023-12-19T20:51:51.154Z,91.50
2023-12-19T20:54:59.977Z,91.50
2023-12-19T20:58:07.175Z,91.50
2023-12-19T21:01:15.484Z,91.60
2023-12-19T21:04:21.202Z,91.50
2023-12-19T21:07:31.531Z,91.50
2023-12-19T21:10:37.374Z,91.50
2023-12-19T21:13:45.281Z,91.50
2023-12-19T21:17:01.654Z,91.50
2023-12-19T21:20:17.178Z,91.50
2023-12-19T21:23:25.472Z,91.50
2023-12-19T21:26:33.106Z,91.50
2023-12-19T21:29:38.795Z,91.50
2023-12-19T21:32:46.863Z,91.50
2023-12-19T21:35:52.723Z,91.50
2023-12-19T21:39:03.866Z,91.40
2023-12-19T21:42:09.641Z,91.40
2023-12-19T21:45:19.583Z,91.40
2023-12-19T21:48:27.092Z,91.40
2023-12-19T21:51:37.243Z,91.40
2023-12-19T21:54:45.661Z,91.40
2023-12-19T21:57:53.343Z,91.40
2023-12-19T22:00:59.020Z,91.40
2023-12-19T22:04:09.009Z,91.40
2023-12-19T22:07:16.950Z,91.40
2023-12-19T22:10:30.914Z,91.40
2023-12-19T22:13:37.354Z,91.40
2023-12-19T22:16:44.849Z,91.40
2023-12-19T22:19:50.581Z,91.30
2023-12-19T22:22:58.159Z,91.30
2023-12-19T22:26:08.764Z,91.30
2023-12-19T22:29:18.193Z,91.30
2023-12-19T22:32:24.411Z,91.30
2023-12-19T22:35:32.114Z,91.30
2023-12-19T22:38:37.932Z,91.30
2023-12-19T22:41:50.041Z,91.30
2023-12-19T22:44:55.643Z,91.30
2023-12-19T22:48:03.273Z,91.30
2023-12-19T22:51:08.916Z,91.30
2023-12-19T22:54:16.745Z,91.40
2023-12-19T22:57:24.891Z,91.40
2023-12-19T23:00:32.528Z,91.40
2023-12-19T23:03:38.409Z,91.40
2023-12-19T23:06:46.309Z,91.30
2023-12-19T23:09:52.024Z,91.30
2023-12-19T23:13:02.514Z,91.30
2023-12-19T23:16:10.733Z,91.40
2023-12-19T23:19:18.646Z,91.30
2023-12-19T23:22:24.246Z,91.30
2023-12-19T23:25:31.742Z,91.30
2023-12-19T23:28:39.910Z,91.30
2023-12-19T23:31:47.837Z,91.30
2023-12-19T23:34:53.660Z,91.30
2023-12-19T23:38:01.577Z,91.40
2023-12-19T23:41:09.158Z,91.30
2023-12-19T23:44:19.322Z,91.30
2023-12-19T23:47:24.827Z,91.30
2023-12-19T23:50:35.140Z,91.30
2023-12-19T23:53:41.774Z,91.20
2023-12-19T23:56:49.665Z,91.30
2023-12-19T23:59:57.917Z,91.20
